Terminal Aerodrome Forecast
Issued by NWS

Home | Current Version | Previous Version | Text Only | Print | Product List | Glossary On
Versions: 1 2 3 4 5 6 7 8 9 10 11 12 13 14 15 16 17 18 19 20 21 22 23
573
FTUS41 KBUF 270251 AAA
TAFIAG
TAF AMD
KIAG 270251Z 2703/2724 VRB04KT P6SM SCT250
     FM270500 17004KT P6SM SKC
     FM270900 16008KT P6SM SKC
     FM271400 16012G19KT P6SM SCT250
     FM272000 19010KT P6SM BKN130
     FM272200 21006KT 4SM SHRA VCTS OVC040CB=

USA.gov is the U.S. government's official web portal to all federal, state and local government web resources and services.